createdAt,value
2023-02-12T00:01:53.867Z,5.03
2023-02-12T00:04:23.030Z,5.45
2023-02-12T00:06:52.040Z,3.50
2023-02-12T00:09:21.029Z,2.85
2023-02-12T00:11:51.695Z,4.28
2023-02-12T00:14:20.772Z,5.57
2023-02-12T00:16:49.641Z,4.50
2023-02-12T00:19:18.908Z,4.32
2023-02-12T00:21:47.940Z,4.78
2023-02-12T00:24:17.248Z,4.75
2023-02-12T00:26:48.221Z,3.43
2023-02-12T00:29:19.265Z,3.10
2023-02-12T00:34:16.911Z,5.32
2023-02-12T00:36:46.154Z,6.35
2023-02-12T00:41:45.012Z,5.20
2023-02-12T00:44:14.864Z,3.08
2023-02-12T00:46:45.529Z,5.93
2023-02-12T00:49:14.814Z,4.82
2023-02-12T00:51:43.878Z,4.03
2023-02-12T00:54:12.963Z,4.22
2023-02-12T00:56:42.198Z,4.43
2023-02-12T00:59:11.201Z,5.00
2023-02-12T01:01:41.509Z,5.18
2023-02-12T01:04:13.086Z,4.03
2023-02-12T01:06:42.234Z,3.28
2023-02-12T01:11:41.752Z,6.07
2023-02-12T01:14:10.933Z,3.47
2023-02-12T01:16:41.287Z,4.13
2023-02-12T01:19:13.482Z,2.88
2023-02-12T01:21:42.657Z,3.17
2023-02-12T01:24:11.963Z,3.20
2023-02-12T01:26:41.149Z,5.33
2023-02-12T01:29:10.384Z,3.05
2023-02-12T01:31:40.350Z,5.28
2023-02-12T01:34:09.831Z,2.63
2023-02-12T01:36:41.907Z,2.60
2023-02-12T01:39:12.934Z,2.70
2023-02-12T01:41:44.063Z,2.35
2023-02-12T01:44:17.331Z,2.53
2023-02-12T01:46:49.743Z,3.55
2023-02-12T01:49:21.670Z,4.18
2023-02-12T01:51:54.704Z,4.65
2023-02-12T01:54:25.886Z,3.90
2023-02-12T01:56:55.342Z,3.78
2023-02-12T01:59:25.646Z,3.70
2023-02-12T02:01:55.158Z,2.67
2023-02-12T02:04:27.380Z,4.43
2023-02-12T02:06:59.909Z,2.35
2023-02-12T02:09:30.319Z,4.07
2023-02-12T02:12:17.069Z,3.67
2023-02-12T02:14:49.202Z,3.17
2023-02-12T02:20:14.868Z,7.88
2023-02-12T02:22:47.256Z,4.60
2023-02-12T02:25:41.692Z,2.50
2023-02-12T02:28:27.668Z,2.95
2023-02-12T02:30:59.765Z,5.82
2023-02-12T02:33:38.092Z,4.60
2023-02-12T02:36:16.177Z,3.53
2023-02-12T02:38:48.077Z,4.22
2023-02-12T02:41:22.667Z,3.05
2023-02-12T02:43:52.613Z,4.93
2023-02-12T02:48:59.234Z,2.90
2023-02-12T02:51:31.680Z,2.78
2023-02-12T02:54:06.355Z,2.38
2023-02-12T02:56:38.581Z,6.80
2023-02-12T02:59:10.077Z,2.60
2023-02-12T03:01:42.808Z,3.65
2023-02-12T03:04:17.389Z,6.90
2023-02-12T03:06:48.521Z,3.08
2023-02-12T03:09:22.120Z,3.13
2023-02-12T03:11:51.907Z,5.68
2023-02-12T03:14:24.860Z,2.08
2023-02-12T03:16:59.121Z,2.30
2023-02-12T03:19:32.271Z,3.50
2023-02-12T03:22:03.835Z,2.13
2023-02-12T03:24:36.879Z,2.20
2023-02-12T03:27:09.209Z,1.80
2023-02-12T03:29:38.347Z,2.67
2023-02-12T03:32:20.565Z,2.13
2023-02-12T03:34:52.330Z,2.58
2023-02-12T03:37:26.543Z,2.05
2023-02-12T03:39:58.266Z,2.20
2023-02-12T03:42:35.789Z,2.25
2023-02-12T03:45:09.976Z,3.10
2023-02-12T03:47:47.821Z,5.25
2023-02-12T03:50:20.712Z,2.33
2023-02-12T03:52:52.326Z,3.38
2023-02-12T03:55:21.712Z,2.53
2023-02-12T03:57:54.656Z,2.90
2023-02-12T04:00:25.068Z,4.00
2023-02-12T04:02:56.510Z,4.38
2023-02-12T04:05:28.848Z,5.68
2023-02-12T04:07:58.925Z,2.40
2023-02-12T04:10:31.043Z,4.22
2023-02-12T04:13:05.846Z,6.85
2023-02-12T04:15:46.773Z,3.05
2023-02-12T04:18:22.656Z,3.00
2023-02-12T04:20:56.433Z,2.63
2023-02-12T04:23:39.260Z,2.45
2023-02-12T04:26:12.797Z,3.58
2023-02-12T04:28:45.469Z,3.28
2023-02-12T04:31:22.378Z,2.47
2023-02-12T04:34:01.756Z,4.40
2023-02-12T04:36:35.432Z,2.03
2023-02-12T04:39:07.619Z,3.47
2023-02-12T04:41:36.682Z,3.63
2023-02-12T04:44:20.420Z,1.85
2023-02-12T04:46:49.081Z,3.50
2023-02-12T04:49:21.332Z,2.00
2023-02-12T04:51:50.843Z,3.30
2023-02-12T04:54:21.095Z,2.92
2023-02-12T04:59:18.916Z,4.30
2023-02-12T05:01:47.718Z,3.33
2023-02-12T05:04:19.357Z,3.80
2023-02-12T05:06:48.790Z,4.93
2023-02-12T05:09:19.682Z,3.13
2023-02-12T05:11:49.012Z,3.25
2023-02-12T05:14:18.143Z,3.53
2023-02-12T05:16:46.940Z,3.08
2023-02-12T05:19:16.004Z,4.10
2023-02-12T05:21:46.532Z,3.00
2023-02-12T05:24:15.717Z,2.75
2023-02-12T05:26:44.882Z,2.83
2023-02-12T05:29:13.980Z,2.60
2023-02-12T05:31:42.928Z,2.83
2023-02-12T05:34:13.141Z,2.67
2023-02-12T05:36:42.521Z,3.30
2023-02-12T05:39:13.390Z,4.10
2023-02-12T05:41:42.492Z,6.20
2023-02-12T05:44:12.663Z,2.90
2023-02-12T05:46:41.428Z,3.08
2023-02-12T05:49:10.691Z,3.30
2023-02-12T05:51:39.875Z,7.90
2023-02-12T05:54:09.420Z,2.58
2023-02-12T05:56:46.920Z,3.63
2023-02-12T05:59:18.352Z,3.80
2023-02-12T06:01:49.131Z,3.13
2023-02-12T06:04:19.825Z,3.53
2023-02-12T06:06:49.058Z,4.13
2023-02-12T06:09:18.475Z,4.30
2023-02-12T06:11:49.048Z,3.45
2023-02-12T06:14:19.879Z,3.35
2023-02-12T06:16:49.676Z,2.53
2023-02-12T06:21:47.925Z,3.47
2023-02-12T06:24:19.532Z,3.70
2023-02-12T06:26:51.192Z,3.25
2023-02-12T06:29:20.764Z,4.60
2023-02-12T06:31:49.913Z,3.47
2023-02-12T06:34:19.402Z,2.92
2023-02-12T06:36:49.064Z,3.67
2023-02-12T06:39:18.718Z,4.63
2023-02-12T06:41:47.723Z,4.37
2023-02-12T06:44:18.272Z,3.08
2023-02-12T06:46:46.874Z,4.05
2023-02-12T06:49:17.098Z,3.63
2023-02-12T06:54:16.725Z,3.30
2023-02-12T06:56:45.876Z,5.10
2023-02-12T06:59:17.574Z,4.63
2023-02-12T07:01:46.254Z,4.95
2023-02-12T07:04:15.525Z,6.68
2023-02-12T07:06:45.101Z,6.30
2023-02-12T07:09:14.231Z,4.27
2023-02-12T07:11:43.205Z,3.58
2023-02-12T07:14:15.937Z,4.53
2023-02-12T07:16:46.163Z,4.18
2023-02-12T07:19:17.012Z,3.30
2023-02-12T07:21:46.066Z,5.45
2023-02-12T07:24:15.412Z,3.80
2023-02-12T07:26:44.538Z,3.83
2023-02-12T07:29:13.779Z,4.95
2023-02-12T07:31:42.993Z,3.45
2023-02-12T07:34:13.842Z,2.83
2023-02-12T07:36:43.225Z,3.08
2023-02-12T07:39:13.517Z,4.47
2023-02-12T07:44:13.653Z,3.05
2023-02-12T07:46:46.942Z,7.97
2023-02-12T07:49:20.636Z,3.05
2023-02-12T07:51:50.217Z,6.60
2023-02-12T07:54:19.456Z,3.22
2023-02-12T07:56:48.586Z,3.33
2023-02-12T07:59:18.731Z,11.65
2023-02-12T08:01:49.375Z,3.10
2023-02-12T08:04:21.687Z,2.83
2023-02-12T08:06:53.665Z,1.77
2023-02-12T08:09:24.065Z,2.22
2023-02-12T08:11:53.360Z,2.00
2023-02-12T08:14:23.485Z,2.08
2023-02-12T08:16:52.863Z,6.50
2023-02-12T08:19:26.345Z,5.13
2023-02-12T08:21:56.692Z,2.20
2023-02-12T08:26:55.022Z,2.13
2023-02-12T08:29:25.927Z,7.90
2023-02-12T08:31:58.124Z,3.13
2023-02-12T08:34:30.102Z,3.28
2023-02-12T08:36:59.934Z,3.50
2023-02-12T08:39:30.933Z,4.30
2023-02-12T08:42:00.778Z,2.67
2023-02-12T08:44:30.243Z,5.30
2023-02-12T08:46:59.251Z,4.87
2023-02-12T08:49:31.399Z,5.25
2023-02-12T08:52:01.980Z,3.20
2023-02-12T08:54:32.837Z,3.30
2023-02-12T08:57:04.494Z,4.65
2023-02-12T08:59:33.586Z,4.18
2023-02-12T09:02:04.406Z,4.47
2023-02-12T09:04:40.142Z,5.15
2023-02-12T09:07:10.931Z,4.22
2023-02-12T09:09:40.020Z,7.07
2023-02-12T09:12:10.188Z,3.33
2023-02-12T09:14:40.020Z,9.38
2023-02-12T09:17:09.060Z,5.00
2023-02-12T09:19:39.153Z,4.18
2023-02-12T09:22:09.459Z,7.50
2023-02-12T09:24:38.850Z,11.77
2023-02-12T09:27:07.976Z,5.00
2023-02-12T09:29:37.279Z,8.30
2023-02-12T09:32:06.812Z,8.10
2023-02-12T09:34:36.560Z,4.60
2023-02-12T09:37:07.029Z,6.18
2023-02-12T09:39:36.652Z,4.32
2023-02-12T09:42:31.618Z,5.32
2023-02-12T09:45:07.361Z,5.15
2023-02-12T09:47:41.992Z,6.93
2023-02-12T09:50:33.085Z,6.82
2023-02-12T09:53:03.612Z,3.55
2023-02-12T09:55:34.563Z,4.95
2023-02-12T09:58:06.310Z,6.38
2023-02-12T10:00:35.343Z,5.25
2023-02-12T10:03:06.099Z,4.35
2023-02-12T10:05:37.803Z,2.85
2023-02-12T10:08:27.811Z,3.88
2023-02-12T10:11:02.744Z,4.60
2023-02-12T10:13:38.325Z,4.25
2023-02-12T10:16:12.519Z,2.80
2023-02-12T10:19:11.042Z,4.13
2023-02-12T10:21:49.367Z,4.53
2023-02-12T10:24:45.111Z,3.88
2023-02-12T10:27:16.552Z,4.60
2023-02-12T10:29:47.477Z,3.75
2023-02-12T10:32:25.956Z,6.18
2023-02-12T10:34:55.364Z,4.00
2023-02-12T10:37:32.572Z,6.03
2023-02-12T10:40:08.291Z,4.50
2023-02-12T10:42:40.458Z,7.07
2023-02-12T10:45:15.397Z,4.03
2023-02-12T10:47:45.818Z,5.28
2023-02-12T10:50:23.625Z,4.55
2023-02-12T10:52:55.803Z,4.78
2023-02-12T10:55:28.182Z,4.38
2023-02-12T10:57:59.949Z,3.95
2023-02-12T11:00:32.627Z,3.83
2023-02-12T11:03:07.958Z,6.00
2023-02-12T11:05:38.308Z,5.93
2023-02-12T11:10:40.433Z,3.90
2023-02-12T11:13:24.525Z,4.50
2023-02-12T11:15:54.457Z,5.40
2023-02-12T11:18:26.360Z,4.88
2023-02-12T11:20:57.997Z,6.43
2023-02-12T11:23:29.459Z,4.63
2023-02-12T11:26:01.860Z,4.70
2023-02-12T11:28:32.384Z,8.88
2023-02-12T11:31:02.867Z,4.40
2023-02-12T11:33:34.821Z,5.50
2023-02-12T11:36:07.892Z,6.60
2023-02-12T11:38:40.272Z,5.47
2023-02-12T11:41:24.550Z,5.82
2023-02-12T11:43:53.789Z,5.47
2023-02-12T11:46:25.159Z,5.77
2023-02-12T11:48:55.388Z,7.40
2023-02-12T11:51:29.356Z,6.22
2023-02-12T11:54:00.376Z,4.82
2023-02-12T11:56:43.900Z,5.13
2023-02-12T11:59:34.968Z,6.90
2023-02-12T12:02:10.814Z,8.00
2023-02-12T12:04:40.821Z,5.78
2023-02-12T12:07:16.475Z,5.40
2023-02-12T12:09:49.068Z,7.03
2023-02-12T12:12:22.226Z,7.07
2023-02-12T12:15:10.985Z,5.80
2023-02-12T12:18:03.837Z,5.50
2023-02-12T12:20:37.034Z,6.20
2023-02-12T12:23:10.943Z,5.18
2023-02-12T12:25:44.909Z,5.00
2023-02-12T12:28:29.254Z,8.50
2023-02-12T12:31:05.976Z,6.80
2023-02-12T12:33:40.069Z,6.75
2023-02-12T12:36:37.180Z,7.22
2023-02-12T12:39:19.877Z,7.47
2023-02-12T12:42:04.435Z,6.07
2023-02-12T12:44:42.269Z,9.25
2023-02-12T12:47:19.262Z,8.65
2023-02-12T12:50:00.111Z,7.93
2023-02-12T12:52:55.869Z,9.30
2023-02-12T12:55:39.758Z,7.90
2023-02-12T12:58:15.191Z,7.07
2023-02-12T13:01:00.241Z,7.65
2023-02-12T13:03:53.019Z,7.88
2023-02-12T13:06:38.689Z,9.15
2023-02-12T13:09:26.500Z,10.10
2023-02-12T13:12:13.559Z,8.95
2023-02-12T13:14:46.861Z,6.00
2023-02-12T13:17:20.569Z,6.95
2023-02-12T13:19:58.457Z,7.45
2023-02-12T13:22:33.047Z,6.85
2023-02-12T13:25:08.267Z,6.88
2023-02-12T13:27:40.611Z,8.18
2023-02-12T13:30:21.426Z,10.50
2023-02-12T13:33:02.975Z,5.70
2023-02-12T13:35:32.930Z,10.07
2023-02-12T13:38:02.384Z,6.38
2023-02-12T13:40:32.496Z,7.65
2023-02-12T13:43:07.696Z,7.10
2023-02-12T13:45:43.047Z,8.27
2023-02-12T13:48:26.857Z,7.85
2023-02-12T13:51:02.005Z,13.35
2023-02-12T13:53:38.353Z,8.10
2023-02-12T13:56:13.675Z,8.45
2023-02-12T13:58:53.688Z,8.45
2023-02-12T14:01:43.758Z,6.78
2023-02-12T14:04:26.955Z,8.95
2023-02-12T14:07:01.058Z,7.97
2023-02-12T14:09:38.989Z,7.03
2023-02-12T14:12:10.866Z,10.40
2023-02-12T14:14:42.304Z,11.20
2023-02-12T14:17:43.056Z,13.00
2023-02-12T14:20:26.273Z,15.27
2023-02-12T14:23:27.338Z,8.25
2023-02-12T14:26:04.527Z,10.77
2023-02-12T14:28:43.847Z,8.48
2023-02-12T14:31:33.464Z,11.57
2023-02-12T14:34:39.374Z,7.68
2023-02-12T14:37:37.636Z,8.75
2023-02-12T14:40:32.182Z,8.43
2023-02-12T14:43:02.936Z,12.88
2023-02-12T14:45:35.193Z,10.07
2023-02-12T14:48:04.804Z,9.50
2023-02-12T14:50:40.985Z,11.80
2023-02-12T14:53:27.427Z,11.98
2023-02-12T14:55:57.142Z,12.30
2023-02-12T14:58:27.983Z,12.88
2023-02-12T15:00:58.484Z,9.85
2023-02-12T15:03:33.323Z,11.90
2023-02-12T15:06:11.244Z,13.95
2023-02-12T15:08:46.496Z,14.05
2023-02-12T15:11:22.723Z,13.57
2023-02-12T15:13:56.222Z,17.92
2023-02-12T15:16:46.397Z,15.00
2023-02-12T15:19:32.970Z,20.33
2023-02-12T15:22:02.391Z,22.20
2023-02-12T15:24:33.185Z,16.45
2023-02-12T15:27:02.421Z,21.58
2023-02-12T15:29:38.044Z,17.73
2023-02-12T15:32:09.918Z,16.42
2023-02-12T15:34:41.928Z,19.27
2023-02-12T15:37:17.096Z,17.80
2023-02-12T15:39:48.257Z,23.35
2023-02-12T15:42:30.205Z,15.38
2023-02-12T15:45:19.757Z,18.90
2023-02-12T15:48:01.862Z,20.13
2023-02-12T15:50:31.748Z,18.75
2023-02-12T15:53:01.280Z,19.55
2023-02-12T15:55:36.380Z,20.55
2023-02-12T15:58:05.544Z,21.20
2023-02-12T16:00:41.565Z,20.65
2023-02-12T16:03:21.557Z,21.05
2023-02-12T16:05:51.316Z,22.73
2023-02-12T16:08:22.757Z,25.42
2023-02-12T16:10:54.857Z,23.35
2023-02-12T16:13:30.195Z,23.15
2023-02-12T16:16:09.060Z,25.25
2023-02-12T16:18:38.235Z,29.00
2023-02-12T16:21:11.863Z,27.00
2023-02-12T16:23:42.467Z,27.52
2023-02-12T16:26:18.635Z,33.40
2023-02-12T16:28:48.952Z,29.73
2023-02-12T16:31:18.799Z,37.65
2023-02-12T16:33:49.926Z,31.70
2023-02-12T16:36:32.946Z,29.58
2023-02-12T16:39:03.506Z,37.08
2023-02-12T16:44:31.240Z,33.50
2023-02-12T16:47:02.120Z,38.10
2023-02-12T16:49:31.299Z,35.97
2023-02-12T16:52:23.049Z,40.38
2023-02-12T16:54:52.178Z,43.22
2023-02-12T16:57:22.892Z,39.20
2023-02-12T16:59:52.136Z,33.10
2023-02-12T17:02:21.509Z,38.28
2023-02-12T17:04:50.277Z,34.13
2023-02-12T17:07:23.224Z,41.47
2023-02-12T17:09:52.714Z,37.65
2023-02-12T17:12:23.529Z,42.58
2023-02-12T17:14:52.729Z,41.03
2023-02-12T17:17:21.872Z,39.38
2023-02-12T17:19:50.565Z,36.83
2023-02-12T17:22:22.876Z,42.30
2023-02-12T17:24:53.430Z,37.08
2023-02-12T17:27:24.304Z,37.53
2023-02-12T17:29:54.601Z,37.20
2023-02-12T17:34:53.581Z,32.25
2023-02-12T17:37:24.677Z,38.20
2023-02-12T17:39:55.295Z,40.00
2023-02-12T17:42:25.916Z,41.30
2023-02-12T17:44:55.306Z,38.10
2023-02-12T17:47:25.696Z,37.92
2023-02-12T17:49:54.430Z,40.78
2023-02-12T17:52:23.616Z,43.08
2023-02-12T17:54:55.050Z,42.50
2023-02-12T17:57:25.719Z,48.47
2023-02-12T17:59:54.799Z,37.00
2023-02-12T18:02:24.052Z,41.67
2023-02-12T18:04:53.189Z,38.55
2023-02-12T18:07:22.342Z,36.35
2023-02-12T18:09:51.733Z,33.28
2023-02-12T18:12:20.934Z,26.73
2023-02-12T18:14:51.816Z,38.05
2023-02-12T18:17:21.076Z,36.78
2023-02-12T18:19:50.636Z,38.13
2023-02-12T18:22:19.855Z,36.00
2023-02-12T18:24:49.103Z,36.13
2023-02-12T18:27:18.554Z,32.85
2023-02-12T18:29:47.710Z,38.92
2023-02-12T18:32:18.492Z,41.60
2023-02-12T18:34:47.680Z,46.63
2023-02-12T18:37:17.997Z,33.80
2023-02-12T18:39:47.503Z,39.08
2023-02-12T18:42:16.641Z,35.72
2023-02-12T18:44:45.956Z,41.55
2023-02-12T18:47:15.284Z,43.75
2023-02-12T18:49:46.316Z,41.40
2023-02-12T18:52:15.530Z,38.63
2023-02-12T18:54:45.546Z,37.10
2023-02-12T18:57:14.968Z,40.22
2023-02-12T18:59:44.391Z,32.92
2023-02-12T19:02:14.941Z,39.00
2023-02-12T19:04:43.873Z,38.45
2023-02-12T19:07:14.504Z,35.77
2023-02-12T19:09:44.018Z,42.05
2023-02-12T19:12:13.917Z,40.88
2023-02-12T19:14:43.266Z,38.55
2023-02-12T19:17:12.447Z,37.22
2023-02-12T19:19:41.289Z,41.13
2023-02-12T19:22:10.446Z,39.17
2023-02-12T19:24:46.854Z,38.25
2023-02-12T19:27:16.199Z,42.97
2023-02-12T19:29:45.608Z,38.22
2023-02-12T19:32:14.663Z,43.38
2023-02-12T19:34:43.383Z,39.78
2023-02-12T19:37:13.997Z,43.10
2023-02-12T19:39:44.567Z,38.65
2023-02-12T19:42:15.002Z,44.60
2023-02-12T19:44:44.736Z,42.70
2023-02-12T19:47:13.850Z,36.38
2023-02-12T19:49:42.669Z,41.92
2023-02-12T19:52:11.671Z,37.83
2023-02-12T19:54:40.764Z,41.90
2023-02-12T19:57:13.486Z,38.22
2023-02-12T19:59:42.827Z,40.17
2023-02-12T20:02:11.816Z,39.97
2023-02-12T20:04:41.420Z,38.50
2023-02-12T20:07:10.602Z,38.63
2023-02-12T20:09:40.292Z,42.20
2023-02-12T20:12:10.867Z,28.95
2023-02-12T20:14:39.923Z,41.65
2023-02-12T20:17:09.086Z,46.25
2023-02-12T20:19:37.816Z,47.67
2023-02-12T20:22:06.898Z,47.88
2023-02-12T20:24:36.293Z,43.50
2023-02-12T20:27:05.464Z,44.00
2023-02-12T20:29:35.904Z,46.10
2023-02-12T20:32:04.987Z,44.78
2023-02-12T20:34:48.853Z,48.13
2023-02-12T20:37:19.472Z,41.05
2023-02-12T20:39:48.535Z,41.95
2023-02-12T20:42:17.457Z,44.88
2023-02-12T20:44:47.989Z,48.30
2023-02-12T20:47:17.028Z,44.75
2023-02-12T20:49:45.624Z,41.65
2023-02-12T20:52:14.697Z,44.70
2023-02-12T20:54:43.782Z,45.05
2023-02-12T20:57:12.805Z,46.65
2023-02-12T20:59:41.959Z,58.60
2023-02-12T21:02:13.246Z,53.13
2023-02-12T21:04:41.958Z,48.70
2023-02-12T21:07:11.028Z,48.28
2023-02-12T21:09:40.123Z,44.65
2023-02-12T21:12:09.114Z,45.80
2023-02-12T21:14:38.330Z,48.25
2023-02-12T21:17:07.410Z,41.65
2023-02-12T21:19:37.721Z,44.20
2023-02-12T21:22:06.676Z,44.67
2023-02-12T21:24:36.888Z,41.83
2023-02-12T21:27:05.898Z,43.45
2023-02-12T21:29:34.932Z,45.38
2023-02-12T21:32:03.987Z,45.05
2023-02-12T21:34:33.069Z,54.35
2023-02-12T21:37:03.512Z,41.70
2023-02-12T21:39:32.541Z,59.63
2023-02-12T21:42:03.892Z,52.90
2023-02-12T21:44:35.469Z,57.75
2023-02-12T21:47:04.925Z,61.00
2023-02-12T21:49:33.581Z,59.70
2023-02-12T21:52:06.665Z,69.47
2023-02-12T21:54:36.705Z,62.03
2023-02-12T21:57:05.701Z,71.50
2023-02-12T21:59:34.682Z,68.78
2023-02-12T22:02:03.925Z,74.50
2023-02-12T22:04:34.858Z,75.72
2023-02-12T22:07:05.529Z,78.32
2023-02-12T22:09:34.570Z,82.53
2023-02-12T22:12:03.632Z,67.82
2023-02-12T22:14:32.830Z,69.13
2023-02-12T22:17:01.814Z,70.72
2023-02-12T22:19:30.430Z,74.13
2023-02-12T22:21:59.382Z,82.78
2023-02-12T22:24:29.853Z,69.35
2023-02-12T22:26:58.783Z,77.93
2023-02-12T22:29:27.885Z,74.40
2023-02-12T22:31:56.624Z,83.68
2023-02-12T22:34:25.743Z,66.40
2023-02-12T22:36:54.798Z,74.20
2023-02-12T22:39:23.896Z,81.90
2023-02-12T22:41:54.299Z,67.85
2023-02-12T22:44:23.352Z,81.60
2023-02-12T22:46:51.974Z,76.35
2023-02-12T22:49:21.067Z,70.50
2023-02-12T22:51:50.424Z,65.47
2023-02-12T22:54:20.391Z,72.05
2023-02-12T22:56:52.026Z,63.95
2023-02-12T22:59:22.725Z,66.80
2023-02-12T23:01:51.406Z,56.15
2023-02-12T23:04:20.773Z,74.97
2023-02-12T23:06:49.886Z,73.82
2023-02-12T23:09:19.991Z,64.95
2023-02-12T23:11:49.588Z,67.05
2023-02-12T23:14:19.640Z,59.80
2023-02-12T23:16:49.881Z,72.28
2023-02-12T23:19:18.931Z,59.42
2023-02-12T23:21:48.019Z,57.50
2023-02-12T23:24:17.005Z,58.97
2023-02-12T23:26:46.050Z,56.75
2023-02-12T23:29:15.168Z,63.90
2023-02-12T23:31:43.830Z,58.75
2023-02-12T23:34:14.418Z,53.47
2023-02-12T23:36:43.386Z,58.97
2023-02-12T23:39:13.639Z,56.28
2023-02-12T23:44:11.490Z,53.28
2023-02-12T23:46:40.036Z,56.35
2023-02-12T23:49:09.263Z,59.67
2023-02-12T23:51:39.729Z,53.65
2023-02-12T23:54:08.807Z,59.75
2023-02-12T23:56:37.856Z,50.33
2023-02-12T23:59:07.089Z,46.55
